Nules, Spain
Current Conditions -  °F | °C
As of 1:00 AM on Sunday 23 Nov 2014 (Local Time) from LEBT Reporting Station
Broken Clouds Broken Clouds  
Wind Chill: 55°   Ceiling: 900
Heat Index: 55°   Visibility: 1.3mi
Dew Point: 55°   Wind: 0mph
Humidity: 100%   Direction: NA
Pressure: 30.06"   Gusts: NA
Location:  39.85°N, 0.16°W
Report Text: LEBT 230000Z AUTO 00000KT 2200 // BKN009/// 13/13 Q1018
Loading
Personal Weather Stations






























Interactive Weather Map New forecast layout! Learn more

10-Day Weather Forecast

Advertisements
Track Severe Weather on mobile